< < Back
Terminal Aerodrome Forecast


Current Version              Previous Versions:   1  2  3  4  5  6  7  8  9  

Terminal Aerodrome Forecast

751
FTUS42 KGSP 052038 AAA
TAFHKY
TAF AMD
KHKY 052038Z 0521/0618 32010KT P6SM VCSH BKN070
     FM060200 31006KT P6SM -SHRA OVC045
     FM060600 31006KT P6SM VCSH SCT040 OVC060
     FM061500 34010G16KT P6SM BKN070=

Latest METAR

561
SAUS70 KWBC 060000 RRL
MTRHKY
METAR KHKY 052353Z 31004KT 8SM -RA OVC044 09/07 A2972 RMK AO2 SLP053
P0003 60003 T00890072 10172 20089 51026


USA.gov is the U.S. government's official web portal to all federal, state and local government web resources and services.